Time;durP1;ratioP1;P1;durP2;ratioP2;P2;SDS_P1;SDS_P2;PMS_P1;PMS_P2;Temp;Humidity;BMP_temperature;BMP_pressure;BME280_temperature;BME280_humidity;BME280_pressure;Samples;Min_cycle;Max_cycle;Signal;HPM_P1;HPM_P2
2023/01/23 00:02:03;;;;;;;19.55;12.10;;;;;;;0.72;77.15;97771.75;6233606;23;20368;-85
2023/01/23 00:04:36;;;;;;;17.08;11.70;;;;;;;0.73;77.20;97773.41;6233090;23;20096;-84
2023/01/23 00:07:12;;;;;;;19.67;12.32;;;;;;;0.73;77.14;97768.25;6232931;23;20016;-84
2023/01/23 00:09:48;;;;;;;16.13;10.90;;;;;;;0.77;77.43;97768.91;6232251;23;20035;-84
2023/01/23 00:12:20;;;;;;;17.77;11.60;;;;;;;0.82;77.66;97766.88;6232827;23;20341;-84
2023/01/23 00:14:55;;;;;;;15.95;11.10;;;;;;;0.85;77.30;97764.13;6233704;23;20021;-84
2023/01/23 00:17:28;;;;;;;15.07;10.10;;;;;;;0.92;77.96;97770.56;6234775;23;20004;-88
2023/01/23 00:20:03;;;;;;;17.45;11.23;;;;;;;0.99;77.43;97768.44;6242543;22;20025;-86
2023/01/23 00:22:43;;;;;;;18.42;11.45;;;;;;;1.03;76.86;97772.47;6241982;23;20024;-86
2023/01/23 00:25:19;;;;;;;20.00;12.43;;;;;;;1.06;76.76;97776.59;6233268;23;20012;-84
2023/01/23 00:27:50;;;;;;;17.52;12.15;;;;;;;1.07;76.61;97781.63;6232533;23;20040;-82
2023/01/23 00:30:22;;;;;;;19.63;12.18;;;;;;;1.09;76.56;97781.53;6233705;23;20032;-84
2023/01/23 00:32:55;;;;;;;16.90;11.02;;;;;;;1.08;76.37;97778.16;6232864;23;20373;-84
2023/01/23 00:35:25;;;;;;;18.85;12.27;;;;;;;1.09;76.53;97764.38;6233549;23;20016;-84
2023/01/23 00:37:54;;;;;;;19.13;11.75;;;;;;;1.14;76.76;97766.69;6219785;22;20051;-75
2023/01/23 00:40:23;;;;;;;16.92;11.55;;;;;;;1.18;76.99;97768.97;6215585;23;20020;-75
2023/01/23 00:42:51;;;;;;;18.13;11.82;;;;;;;1.21;76.68;97766.19;6215185;23;20027;-74
2023/01/23 00:45:19;;;;;;;18.70;12.00;;;;;;;1.21;76.75;97773.09;6215148;23;20025;-75
2023/01/23 00:47:46;;;;;;;16.67;11.48;;;;;;;1.22;77.40;97774.72;6229027;23;20024;-75
2023/01/23 00:50:14;;;;;;;19.65;12.35;;;;;;;1.25;76.75;97774.56;6245544;23;20020;-75
2023/01/23 00:52:41;;;;;;;19.33;11.98;;;;;;;1.22;75.89;97780.72;6245652;23;20026;-75
2023/01/23 00:55:10;;;;;;;19.33;11.90;;;;;;;1.18;75.79;97786.97;6245210;23;20111;-75
2023/01/23 00:57:39;;;;;;;16.25;11.90;;;;;;;1.14;75.64;97785.50;6245487;23;20095;-75
2023/01/23 01:00:08;;;;;;;19.52;12.07;;;;;;;1.13;75.11;97788.16;6244831;23;20024;-75
2023/01/23 01:02:35;;;;;;;19.55;12.18;;;;;;;1.12;75.65;97796.78;6245556;23;20030;-75
2023/01/23 01:05:03;;;;;;;18.65;11.65;;;;;;;1.09;75.15;97794.38;6245273;23;20024;-75
2023/01/23 01:07:31;;;;;;;20.27;12.98;;;;;;;1.07;75.29;97797.03;6246711;23;20356;-75
2023/01/23 01:09:58;;;;;;;17.90;12.02;;;;;;;1.04;75.02;97797.25;6246155;23;20020;-74
2023/01/23 01:12:26;;;;;;;19.27;11.90;;;;;;;1.05;75.15;97800.63;6247252;23;20329;-75
2023/01/23 01:14:54;;;;;;;17.13;11.27;;;;;;;1.05;75.76;97798.06;6247305;23;20026;-75
2023/01/23 01:17:23;;;;;;;16.58;10.88;;;;;;;1.07;76.02;97806.50;6247376;23;20024;-75
2023/01/23 01:19:50;;;;;;;17.13;10.93;;;;;;;1.11;76.22;97802.84;6245870;23;20016;-75
2023/01/23 01:22:18;;;;;;;17.45;11.52;;;;;;;1.14;75.95;97816.34;6247501;23;20371;-75
2023/01/23 01:24:46;;;;;;;17.27;10.88;;;;;;;1.13;75.60;97809.53;6247037;23;20020;-75
2023/01/23 01:27:13;;;;;;;18.35;12.13;;;;;;;1.13;75.49;97816.41;6246334;23;20456;-75
2023/01/23 01:29:41;;;;;;;19.63;12.32;;;;;;;1.15;75.41;97815.41;6245970;23;20020;-75
2023/01/23 01:32:09;;;;;;;21.60;13.15;;;;;;;1.16;75.18;97814.50;6246943;23;20026;-75
2023/01/23 01:34:37;;;;;;;17.73;11.15;;;;;;;1.18;75.63;97812.66;6246895;23;20024;-75
2023/01/23 01:37:04;;;;;;;17.65;10.27;;;;;;;1.21;75.19;97820.19;6246256;23;20016;-75
2023/01/23 01:39:32;;;;;;;17.35;12.10;;;;;;;1.17;74.80;97816.13;6245972;23;20024;-75
2023/01/23 01:41:59;;;;;;;18.55;11.45;;;;;;;1.16;74.90;97819.63;6246922;23;20031;-75
2023/01/23 01:44:27;;;;;;;17.63;10.60;;;;;;;1.11;74.64;97808.78;6246800;23;20642;-75
2023/01/23 01:46:55;;;;;;;17.83;10.65;;;;;;;1.08;74.54;97821.03;6247015;23;20460;-75
2023/01/23 01:49:28;;;;;;;16.70;10.10;;;;;;;1.03;74.28;97821.31;6245999;23;20383;-75
2023/01/23 01:52:00;;;;;;;16.48;10.07;;;;;;;0.98;74.42;97816.44;6246643;23;20054;-75
2023/01/23 01:54:34;;;;;;;17.15;11.07;;;;;;;0.95;74.63;97828.63;6247203;23;20056;-75
2023/01/23 01:57:05;;;;;;;17.27;11.30;;;;;;;0.95;74.65;97815.78;6247236;23;20096;-75
2023/01/23 01:59:38;;;;;;;18.00;10.95;;;;;;;0.94;74.95;97808.97;6246249;23;20024;-75
2023/01/23 02:02:11;;;;;;;19.17;11.07;;;;;;;0.94;75.32;97806.41;6247118;23;20020;-75
2023/01/23 02:04:43;;;;;;;17.27;10.95;;;;;;;0.95;74.99;97813.22;6246727;23;20028;-75
2023/01/23 02:07:20;;;;;;;21.15;11.85;;;;;;;0.95;75.50;97808.91;6246289;23;20095;-75
2023/01/23 02:09:49;;;;;;;16.75;11.65;;;;;;;0.93;75.19;97821.00;6246051;23;20026;-75
2023/01/23 02:12:16;;;;;;;17.50;11.10;;;;;;;0.94;75.18;97812.41;6247572;23;20030;-75
2023/01/23 02:14:44;;;;;;;18.27;11.35;;;;;;;0.95;75.04;97818.34;6253215;23;20043;-74
2023/01/23 02:17:12;;;;;;;16.50;9.77;;;;;;;0.93;75.14;97815.06;6255229;23;20034;-75
2023/01/23 02:19:49;;;;;;;20.75;11.77;;;;;;;0.90;75.20;97820.38;6247283;23;20355;-75
2023/01/23 02:22:26;;;;;;;18.00;11.20;;;;;;;0.88;75.38;97809.38;6246788;23;20020;-75
2023/01/23 02:25:02;;;;;;;15.63;9.65;;;;;;;0.87;75.42;97815.41;6246625;23;20030;-75
2023/01/23 02:27:31;;;;;;;17.80;10.77;;;;;;;0.87;75.73;97816.22;6246052;23;20468;-75
2023/01/23 02:29:58;;;;;;;16.50;9.95;;;;;;;0.89;75.43;97818.72;6245776;23;20020;-75
2023/01/23 02:32:26;;;;;;;18.95;10.98;;;;;;;0.88;74.93;97812.75;6246622;23;20032;-75
2023/01/23 02:34:58;;;;;;;16.35;10.00;;;;;;;0.89;74.81;97811.00;6246138;23;20535;-75
2023/01/23 02:37:32;;;;;;;18.15;10.00;;;;;;;0.89;74.88;97818.72;6246234;23;20512;-75
2023/01/23 02:40:02;;;;;;;16.65;10.23;;;;;;;0.88;74.87;97822.22;6245907;23;20099;-75
2023/01/23 02:42:32;;;;;;;18.90;11.63;;;;;;;0.87;74.65;97815.41;6246432;23;20108;-75
2023/01/23 02:44:59;;;;;;;18.55;10.52;;;;;;;0.87;74.99;97816.22;6246692;23;20021;-75
2023/01/23 02:47:28;;;;;;;19.77;9.93;;;;;;;0.87;74.69;97815.41;6246543;23;20348;-75
2023/01/23 02:49:55;;;;;;;17.73;10.20;;;;;;;0.87;74.63;97805.13;6245538;23;20020;-75
2023/01/23 02:52:23;;;;;;;17.30;10.45;;;;;;;0.88;74.99;97817.06;6246492;23;20080;-75
2023/01/23 02:54:50;;;;;;;18.65;10.02;;;;;;;0.89;74.91;97801.56;6246562;23;20020;-75
2023/01/23 02:57:18;;;;;;;18.90;10.35;;;;;;;0.91;74.87;97804.03;6246279;23;20028;-75
2023/01/23 03:02:32;;;;;;;18.95;10.60;;;;;;;0.93;74.41;97809.91;6246873;23;20020;-75
2023/01/23 03:05:00;;;;;;;17.20;10.10;;;;;;;0.95;74.18;97813.22;6246192;23;20020;-75
2023/01/23 03:07:27;;;;;;;16.52;9.38;;;;;;;0.95;74.22;97813.22;6246144;23;20021;-75
2023/01/23 03:09:55;;;;;;;17.15;11.07;;;;;;;0.95;74.06;97805.50;6244725;23;20023;-75
2023/01/23 03:12:22;;;;;;;18.15;10.00;;;;;;;0.97;74.29;97803.69;6246031;23;20472;-75
2023/01/23 03:14:53;;;;;;;16.70;10.07;;;;;;;0.97;74.23;97812.19;6246322;23;20055;-76
2023/01/23 03:17:21;;;;;;;17.63;10.35;;;;;;;0.99;74.18;97799.28;6246341;23;20020;-75
2023/01/23 03:19:49;;;;;;;17.15;10.57;;;;;;;1.00;73.97;97801.72;6245386;23;20026;-75
2023/01/23 03:22:16;;;;;;;17.67;10.43;;;;;;;1.00;74.27;97795.78;6246016;23;20020;-75
2023/01/23 03:24:44;;;;;;;16.88;10.88;;;;;;;1.01;74.28;97800.00;6245982;23;20513;-75
2023/01/23 03:27:12;;;;;;;19.45;11.35;;;;;;;1.01;74.05;97800.00;6246092;23;20070;-75
2023/01/23 03:32:28;;;;;;;18.98;11.25;;;;;;;1.04;73.93;97794.66;6245938;23;20027;-75
2023/01/23 03:34:56;;;;;;;19.67;11.07;;;;;;;1.04;73.97;97789.53;6245365;23;20027;-75
2023/01/23 03:37:23;;;;;;;20.55;11.80;;;;;;;1.05;74.22;97803.19;6245582;23;20020;-75
2023/01/23 03:42:36;;;;;;;21.05;12.13;;;;;;;1.09;74.67;97794.38;6245888;23;20046;-75
2023/01/23 03:45:05;;;;;;;22.13;12.65;;;;;;;1.08;74.19;97801.28;6245632;23;20020;-75
2023/01/23 03:47:34;;;;;;;22.05;11.88;;;;;;;1.06;74.56;97795.41;6245746;23;20024;-75
2023/01/23 03:50:01;;;;;;;20.63;11.43;;;;;;;1.06;74.41;97795.41;6244528;23;20023;-75
2023/01/23 03:52:29;;;;;;;18.85;11.15;;;;;;;1.06;74.61;97803.13;6245866;23;20026;-75
2023/01/23 03:54:56;;;;;;;18.45;11.30;;;;;;;1.08;75.12;97809.00;6245838;23;20079;-75
2023/01/23 03:57:24;;;;;;;19.67;11.98;;;;;;;1.11;74.57;97802.84;6245869;23;20016;-74
2023/01/23 03:59:51;;;;;;;19.75;11.27;;;;;;;1.12;74.16;97818.16;6244888;23;20020;-75
2023/01/23 04:02:19;;;;;;;20.50;12.18;;;;;;;1.12;74.36;97822.50;6245157;23;20051;-75
2023/01/23 04:04:48;;;;;;;19.05;11.73;;;;;;;1.14;74.06;97831.75;6245344;23;20490;-75
2023/01/23 04:07:15;;;;;;;20.17;11.38;;;;;;;1.14;73.82;97833.50;6245481;23;20020;-75
2023/01/23 04:09:43;;;;;;;17.95;10.90;;;;;;;1.15;74.19;97835.97;6244138;23;20028;-75
2023/01/23 04:12:10;;;;;;;17.95;11.25;;;;;;;1.16;74.38;97842.78;6245537;23;20027;-75
2023/01/23 04:14:38;;;;;;;16.20;9.95;;;;;;;1.17;73.60;97843.59;6245504;23;20027;-75
2023/01/23 04:17:06;;;;;;;19.80;10.20;;;;;;;1.15;73.46;97848.00;6245395;23;20026;-75
2023/01/23 04:19:34;;;;;;;17.15;10.25;;;;;;;1.14;73.21;97844.59;6243586;23;20464;-75
2023/01/23 04:22:04;;;;;;;15.48;9.88;;;;;;;1.14;72.30;97848.94;6244889;23;20021;-74
2023/01/23 04:24:32;;;;;;;16.70;10.02;;;;;;;1.13;72.46;97853.22;6245501;23;20020;-75
2023/01/23 04:26:59;;;;;;;15.70;9.82;;;;;;;1.13;72.17;97850.66;6244954;23;20020;-76
2023/01/23 04:29:28;;;;;;;17.52;10.10;;;;;;;1.11;72.44;97843.94;6244950;23;20024;-75
2023/01/23 04:31:55;;;;;;;16.75;9.88;;;;;;;1.10;72.01;97848.28;6246186;23;20159;-75
2023/01/23 04:34:23;;;;;;;15.38;9.55;;;;;;;1.11;72.01;97854.22;6245372;23;20026;-75
2023/01/23 04:36:50;;;;;;;16.02;10.80;;;;;;;1.11;72.27;97846.53;6245873;23;20079;-75
2023/01/23 04:39:19;;;;;;;17.02;10.52;;;;;;;1.12;72.06;97851.56;6244969;23;20024;-75
2023/01/23 04:41:47;;;;;;;16.23;10.43;;;;;;;1.12;72.23;97845.63;6247426;23;20107;-75
2023/01/23 04:44:20;;;;;;;17.70;10.90;;;;;;;1.12;72.20;97846.44;6247400;23;20042;-75
2023/01/23 04:46:49;;;;;;;19.90;10.73;;;;;;;1.14;72.40;97846.34;6247039;23;20020;-75
2023/01/23 04:49:18;;;;;;;17.40;10.20;;;;;;;1.15;72.50;97841.09;6246411;23;20334;-75
2023/01/23 04:51:47;;;;;;;15.52;9.88;;;;;;;1.16;73.17;97832.50;6247480;23;20095;-75
2023/01/23 04:54:14;;;;;;;17.27;10.77;;;;;;;1.20;74.03;97838.25;6246683;23;20027;-75
2023/01/23 04:56:44;;;;;;;15.63;10.20;;;;;;;1.23;74.00;97838.91;6247180;23;20063;-75
2023/01/23 04:59:12;;;;;;;18.13;11.38;;;;;;;1.27;73.52;97836.97;6245809;23;20460;-75
2023/01/23 05:01:40;;;;;;;18.63;11.27;;;;;;;1.24;72.71;97837.97;6247170;23;20030;-75
2023/01/23 05:04:07;;;;;;;17.77;10.57;;;;;;;1.21;73.20;97835.59;6259217;23;20024;-75
2023/01/23 05:06:35;;;;;;;21.27;11.77;;;;;;;1.22;73.42;97839.84;6252843;23;20024;-75
2023/01/23 05:09:02;;;;;;;18.33;11.30;;;;;;;1.22;73.51;97837.25;6246823;23;20020;-75
2023/01/23 05:11:30;;;;;;;19.65;11.15;;;;;;;1.23;73.53;97838.91;6246295;23;20024;-75
2023/01/23 05:13:59;;;;;;;17.63;10.38;;;;;;;1.24;73.21;97845.69;6247174;23;20338;-75
2023/01/23 05:16:26;;;;;;;19.73;12.75;;;;;;;1.23;72.96;97844.03;6246781;23;20020;-74
2023/01/23 05:18:54;;;;;;;18.08;11.18;;;;;;;1.21;72.97;97839.91;6246193;23;20021;-76
2023/01/23 05:21:21;;;;;;;17.92;11.23;;;;;;;1.18;72.95;97842.66;6247459;23;20024;-76
2023/01/23 05:23:49;;;;;;;17.48;11.18;;;;;;;1.12;73.05;97849.00;6247620;23;20021;-76
2023/01/23 05:26:16;;;;;;;19.88;11.70;;;;;;;1.09;73.10;97850.94;6246624;23;20547;-76
2023/01/23 05:28:44;;;;;;;22.27;12.05;;;;;;;1.10;73.37;97855.16;6245815;23;20024;-76
2023/01/23 05:31:13;;;;;;;21.00;11.63;;;;;;;1.13;74.20;97854.97;6246967;23;20023;-76
2023/01/23 05:33:40;;;;;;;16.95;10.90;;;;;;;1.17;74.25;97859.00;6247076;23;20424;-77
2023/01/23 05:36:08;;;;;;;17.60;10.73;;;;;;;1.17;73.68;97859.81;6247196;23;20026;-77
2023/01/23 05:38:36;;;;;;;19.10;11.65;;;;;;;1.18;73.36;97856.34;6245834;23;20022;-77
2023/01/23 05:41:04;;;;;;;17.15;10.55;;;;;;;1.20;73.12;97866.53;6246872;23;20338;-77
2023/01/23 05:43:31;;;;;;;15.02;10.05;;;;;;;1.18;72.55;97863.22;6246454;23;20027;-77
2023/01/23 05:46:00;;;;;;;16.70;10.40;;;;;;;1.15;72.27;97869.38;6246462;23;20052;-76
2023/01/23 05:48:29;;;;;;;14.68;8.98;;;;;;;1.14;72.00;97875.44;6245287;23;20099;-77
2023/01/23 05:50:56;;;;;;;14.40;9.43;;;;;;;1.14;72.03;97878.00;6246830;23;20026;-77
2023/01/23 05:53:24;;;;;;;16.17;10.05;;;;;;;1.13;71.97;97873.78;6246288;23;20086;-75
2023/01/23 05:55:51;;;;;;;14.80;9.02;;;;;;;1.13;72.25;97872.94;6246526;23;20083;-76
2023/01/23 05:58:19;;;;;;;15.27;10.02;;;;;;;1.16;73.08;97867.63;6245420;23;20027;-77
2023/01/23 06:00:46;;;;;;;17.17;10.23;;;;;;;1.18;73.36;97869.22;6247421;23;20026;-79
2023/01/23 06:03:14;;;;;;;16.42;10.27;;;;;;;1.20;72.49;97877.66;6247736;23;20024;-79
2023/01/23 06:05:43;;;;;;;17.80;10.13;;;;;;;1.19;72.73;97882.88;6247760;23;20047;-77
2023/01/23 06:08:10;;;;;;;18.02;11.65;;;;;;;1.21;72.97;97884.44;6244305;23;20020;-78
2023/01/23 06:10:38;;;;;;;16.83;10.10;;;;;;;1.26;72.28;97898.75;6244647;23;20027;-78
2023/01/23 06:13:05;;;;;;;18.30;10.63;;;;;;;1.26;72.01;97898.75;6244682;23;20020;-78
2023/01/23 06:15:33;;;;;;;16.58;10.07;;;;;;;1.25;72.32;97905.66;6244549;23;20356;-78
2023/01/23 06:18:01;;;;;;;16.65;10.23;;;;;;;1.24;72.11;97917.66;6243657;23;20031;-78
2023/01/23 06:20:28;;;;;;;15.75;10.38;;;;;;;1.24;72.23;97912.50;6244112;23;20024;-78
2023/01/23 06:22:57;;;;;;;19.23;10.57;;;;;;;1.27;71.88;97918.38;6245607;23;20027;-78
2023/01/23 06:25:25;;;;;;;16.42;10.48;;;;;;;1.27;72.12;97918.38;6246638;23;20539;-78
2023/01/23 06:27:52;;;;;;;19.00;11.57;;;;;;;1.27;71.61;97924.38;6245717;23;20027;-79
2023/01/23 06:30:21;;;;;;;16.10;10.52;;;;;;;1.24;71.90;97924.53;6246511;23;20048;-78
2023/01/23 06:32:49;;;;;;;19.88;10.77;;;;;;;1.18;71.77;97933.47;6246934;23;20352;-78
2023/01/23 06:35:17;;;;;;;19.05;11.32;;;;;;;1.14;71.66;97926.84;6246600;23;20103;-78
2023/01/23 06:37:45;;;;;;;18.23;10.20;;;;;;;1.12;71.86;97938.13;6235625;22;20030;-84
2023/01/23 06:40:15;;;;;;;17.88;9.82;;;;;;;1.08;71.53;97936.66;6220511;23;20357;-84
2023/01/23 06:42:43;;;;;;;19.30;10.20;;;;;;;1.01;71.39;97936.19;6220869;23;20028;-84
2023/01/23 06:45:11;;;;;;;16.65;11.00;;;;;;;1.01;71.67;97933.63;6221831;23;20024;-84
2023/01/23 06:47:39;;;;;;;16.35;9.73;;;;;;;0.99;71.81;97932.88;6234791;23;20031;-87
2023/01/23 06:50:07;;;;;;;15.30;9.77;;;;;;;0.98;71.69;97936.34;6272528;22;20023;-88
2023/01/23 06:52:35;;;;;;;17.75;10.00;;;;;;;0.97;71.78;97940.66;6273283;22;20059;-87
2023/01/23 06:55:03;;;;;;;16.05;10.32;;;;;;;0.96;71.49;97943.31;6258501;23;20095;-86
2023/01/23 06:57:34;;;;;;;15.40;9.73;;;;;;;0.93;71.25;97949.47;6253174;23;20016;-84
2023/01/23 07:00:10;;;;;;;14.23;8.90;;;;;;;0.90;71.30;97951.41;6251982;23;20012;-84
2023/01/23 07:02:42;;;;;;;15.40;9.43;;;;;;;0.88;71.33;97954.06;6250737;23;20016;-83
2023/01/23 07:05:12;;;;;;;17.27;9.85;;;;;;;0.86;71.36;97957.63;6250963;23;20032;-84
2023/01/23 07:07:48;;;;;;;14.52;8.90;;;;;;;0.84;71.29;97962.03;6250805;23;20016;-84
2023/01/23 07:10:19;;;;;;;17.10;10.32;;;;;;;0.83;71.12;97963.75;6252705;23;20047;-85
2023/01/23 07:12:56;;;;;;;17.08;10.52;;;;;;;0.82;71.40;97968.06;6251950;23;20510;-85
2023/01/23 07:15:27;;;;;;;15.20;9.52;;;;;;;0.84;71.49;97969.72;6251976;23;20016;-84
2023/01/23 07:18:04;;;;;;;15.68;9.57;;;;;;;0.82;71.15;97969.81;6250230;23;20016;-84
2023/01/23 07:20:33;;;;;;;15.57;8.82;;;;;;;0.82;71.23;97964.66;6249955;23;20012;-84
2023/01/23 07:23:03;;;;;;;18.40;10.68;;;;;;;0.82;71.31;97965.50;6249826;23;20023;-85
2023/01/23 07:25:43;;;;;;;17.80;9.43;;;;;;;0.85;71.38;97961.09;6250853;23;20027;-84
2023/01/23 07:28:17;;;;;;;14.75;9.20;;;;;;;0.85;70.36;97972.19;6251172;23;20048;-84
2023/01/23 07:30:50;;;;;;;14.65;9.40;;;;;;;0.83;70.72;97979.16;6250808;23;20510;-83
2023/01/23 07:33:20;;;;;;;13.55;9.00;;;;;;;0.79;70.46;97973.38;6250960;23;20027;-84
2023/01/23 07:35:54;;;;;;;16.67;10.07;;;;;;;0.77;70.33;97982.09;6250903;23;20019;-84
2023/01/23 07:38:30;;;;;;;16.15;9.50;;;;;;;0.76;70.22;97978.69;6250520;23;20048;-84
2023/01/23 07:41:07;;;;;;;12.23;8.15;;;;;;;0.76;70.51;97983.00;6252569;23;20016;-84
2023/01/23 07:43:42;;;;;;;13.55;9.05;;;;;;;0.76;70.26;97978.69;6251558;23;20020;-83
2023/01/23 07:46:17;;;;;;;15.25;9.27;;;;;;;0.75;70.62;97979.59;6251510;23;20082;-83
2023/01/23 07:48:52;;;;;;;14.48;9.25;;;;;;;0.75;70.08;97977.03;6250814;23;20077;-84
2023/01/23 07:51:23;;;;;;;14.35;8.95;;;;;;;0.72;70.31;97977.22;6262123;23;20024;-86
2023/01/23 07:53:58;;;;;;;13.45;8.77;;;;;;;0.68;70.33;97970.59;6259013;23;20024;-84
2023/01/23 07:56:31;;;;;;;15.52;9.35;;;;;;;0.68;70.38;97970.59;6253335;23;20023;-84
2023/01/23 07:59:06;;;;;;;15.35;9.38;;;;;;;0.69;70.23;97961.97;6252434;23;20374;-84
2023/01/23 08:01:34;;;;;;;;;;;;;;;0.74;70.48;97962.53;6251976;23;20023;-84
2023/01/23 08:04:09;;;;;;;14.60;8.63;;;;;;;0.74;71.27;97965.09;6251323;23;19977;-84
2023/01/23 08:06:40;;;;;;;16.67;10.23;;;;;;;0.76;70.79;97952.16;6252223;23;20016;-83
2023/01/23 08:09:10;;;;;;;15.00;9.63;;;;;;;0.78;71.09;97943.47;6252260;23;20016;-84
2023/01/23 08:11:45;;;;;;;16.15;9.82;;;;;;;0.82;71.12;97952.66;6252392;23;20027;-83
2023/01/23 08:14:15;;;;;;;;;;;;;;;0.87;70.88;97943.84;6252045;23;20016;-84
2023/01/23 08:16:50;;;;;;;14.82;8.77;;;;;;;0.89;70.58;97947.16;6252833;23;19986;-83
2023/01/23 08:19:24;;;;;;;14.82;9.65;;;;;;;0.87;71.58;97949.00;6251534;23;20542;-84
2023/01/23 08:21:52;;;;;;;17.25;9.57;;;;;;;0.93;71.81;97953.78;6251856;23;20020;-84
2023/01/23 08:24:26;;;;;;;16.00;10.10;;;;;;;0.96;71.13;97953.59;6251911;23;20020;-84
2023/01/23 08:26:58;;;;;;;15.43;9.70;;;;;;;0.96;70.82;97964.72;6253619;23;20399;-84
2023/01/23 08:29:33;;;;;;;14.02;8.82;;;;;;;0.93;70.30;97972.59;6253002;23;20035;-84
2023/01/23 08:32:03;;;;;;;14.93;8.93;;;;;;;0.94;70.07;97960.56;6252341;23;20099;-84
2023/01/23 08:34:42;;;;;;;13.75;8.77;;;;;;;0.91;70.38;97971.03;6252103;23;20082;-83
2023/01/23 08:37:14;;;;;;;13.23;8.68;;;;;;;0.91;69.92;97971.03;6251896;23;20411;-84
2023/01/23 08:39:52;;;;;;;13.00;8.02;;;;;;;0.88;69.99;97968.66;6251176;23;20085;-84
2023/01/23 08:42:24;;;;;;;13.57;8.75;;;;;;;0.85;69.82;97972.19;6251108;23;20356;-84
2023/01/23 08:45:00;;;;;;;13.27;8.35;;;;;;;0.83;69.51;97981.72;6250246;23;20469;-84
2023/01/23 08:47:35;;;;;;;13.88;8.82;;;;;;;0.78;69.88;97969.13;6250718;23;20074;-84
2023/01/23 08:50:11;;;;;;;11.50;7.88;;;;;;;0.77;70.10;97972.63;6253130;23;20013;-85
2023/01/23 08:52:46;;;;;;;12.73;8.40;;;;;;;0.76;70.05;97972.72;6253900;23;20043;-83
2023/01/23 08:55:19;;;;;;;14.40;9.27;;;;;;;0.75;70.04;97987.31;6262093;23;20004;-86
2023/01/23 08:57:51;;;;;;;18.17;10.15;;;;;;;0.76;69.94;97999.22;6270301;23;20004;-86
2023/01/23 09:00:24;;;;;;;13.52;8.23;;;;;;;0.74;69.84;97998.47;6269553;23;20004;-85
2023/01/23 09:02:53;;;;;;;16.33;9.20;;;;;;;0.73;69.85;97984.00;6273400;22;20011;-87
2023/01/23 09:05:21;;;;;;;15.13;9.13;;;;;;;0.69;70.07;97977.38;6273666;22;20068;-86
2023/01/23 09:07:58;;;;;;;14.85;9.88;;;;;;;0.66;70.07;97975.00;6268605;22;20020;-84
2023/01/23 09:10:32;;;;;;;17.67;10.07;;;;;;;0.65;70.24;97977.63;6262910;23;20016;-87
2023/01/23 09:13:03;;;;;;;13.98;9.02;;;;;;;0.64;70.60;97983.69;6261235;23;20020;-85
2023/01/23 09:15:37;;;;;;;15.15;9.55;;;;;;;0.61;70.37;97977.81;6259830;23;20031;-85
2023/01/23 09:18:07;;;;;;;16.15;9.85;;;;;;;0.60;70.55;97983.03;6259658;23;20031;-84
2023/01/23 09:20:35;;;;;;;13.35;8.95;;;;;;;0.62;70.74;97999.19;6260524;23;20055;-85
2023/01/23 09:23:02;;;;;;;14.18;8.77;;;;;;;0.63;70.64;97993.13;6260259;23;20012;-84
2023/01/23 09:25:31;;;;;;;16.92;10.25;;;;;;;0.62;70.74;98004.31;6259910;23;20031;-86
2023/01/23 09:28:05;;;;;;;15.02;9.10;;;;;;;0.63;71.02;98002.56;6258185;23;20020;-84
2023/01/23 09:30:37;;;;;;;17.10;10.18;;;;;;;0.66;70.87;98000.66;6258937;23;20356;-83
2023/01/23 09:33:07;;;;;;;16.77;9.95;;;;;;;0.66;70.97;97998.09;6259083;23;20012;-85
2023/01/23 09:35:35;;;;;;;15.32;8.85;;;;;;;0.66;70.98;98003.25;6260102;23;20031;-85
2023/01/23 09:38:07;;;;;;;17.55;10.07;;;;;;;0.68;70.82;97996.28;6257011;23;20032;-85
2023/01/23 09:40:54;;;;;;;18.63;9.93;;;;;;;0.68;71.03;97990.28;6257392;23;20444;-83
2023/01/23 09:43:31;;;;;;;17.77;10.65;;;;;;;0.69;71.08;97995.34;6256706;23;20440;-84
2023/01/23 09:46:16;;;;;;;17.02;11.02;;;;;;;0.71;71.01;97990.97;6257575;23;20020;-86
2023/01/23 09:48:52;;;;;;;18.45;10.40;;;;;;;0.72;71.27;97977.22;6257052;23;20268;-84
2023/01/23 09:51:33;;;;;;;18.27;10.60;;;;;;;0.73;71.33;97973.72;6256883;23;20018;-84
2023/01/23 09:54:16;;;;;;;16.77;10.23;;;;;;;0.74;71.28;97975.38;6254241;23;20020;-83
2023/01/23 09:56:49;;;;;;;18.05;10.35;;;;;;;0.71;71.15;97980.69;6254625;23;20027;-83
2023/01/23 09:59:33;;;;;;;19.83;11.23;;;;;;;0.73;71.57;97972.91;6255599;23;20532;-84
2023/01/23 10:02:03;;;;;;;19.27;9.95;;;;;;;0.71;71.41;97972.97;6256203;23;20423;-84
2023/01/23 10:04:31;;;;;;;20.90;12.77;;;;;;;0.72;71.44;97978.94;6256644;23;20030;-84
2023/01/23 10:07:52;;;;;;;18.35;10.90;;;;;;;0.81;71.77;97979.25;6255421;23;20020;-84
2023/01/23 10:10:46;;;;;;;19.45;10.13;;;;;;;0.89;71.54;97962.56;6132227;23;20018;-84
2023/01/23 10:13:21;;;;;;;18.77;10.45;;;;;;;0.92;71.05;97967.53;6254148;23;20020;-84
2023/01/23 10:16:19;;;;;;;17.95;10.77;;;;;;;0.95;70.97;97946.81;6254102;23;20016;-83
2023/01/23 10:18:58;;;;;;;17.30;9.98;;;;;;;0.97;71.28;97955.25;6252243;23;20020;-84
2023/01/23 10:21:40;;;;;;;18.30;10.73;;;;;;;0.99;70.99;97959.38;6255302;23;20077;-85
2023/01/23 10:24:32;;;;;;;17.08;10.07;;;;;;;1.02;71.16;97953.25;6254893;23;20468;-85
2023/01/23 10:27:18;;;;;;;20.45;11.77;;;;;;;1.09;70.95;97957.09;6253049;23;20020;-84
2023/01/23 10:30:04;;;;;;;18.35;10.43;;;;;;;1.13;70.57;97956.00;6252978;23;20012;-84
2023/01/23 10:32:46;;;;;;;18.60;10.02;;;;;;;1.15;70.64;97956.75;6252083;23;20020;-84
2023/01/23 10:35:28;;;;;;;18.75;11.15;;;;;;;1.14;70.76;97957.69;6272286;22;20023;-89
2023/01/23 10:38:10;;;;;;;19.67;11.20;;;;;;;1.16;70.67;97952.44;6273001;22;20004;-86
2023/01/23 10:43:29;;;;;;;16.15;9.00;;;;;;;1.21;70.85;97953.84;6254644;23;20250;-83
2023/01/23 10:46:03;;;;;;;20.77;12.05;;;;;;;1.26;70.88;97960.44;6253395;23;20017;-86
2023/01/23 10:48:49;;;;;;;18.60;11.05;;;;;;;1.31;71.24;97966.13;6252399;23;20070;-84
2023/01/23 10:51:48;;;;;;;18.70;11.27;;;;;;;1.39;71.12;97961.38;6253946;23;20040;-83
2023/01/23 10:54:23;;;;;;;20.48;12.38;;;;;;;1.41;70.81;97956.97;6255388;23;20031;-84
2023/01/23 10:57:02;;;;;;;19.25;11.60;;;;;;;1.43;70.48;97955.13;6256117;23;20024;-83
2023/01/23 10:59:54;;;;;;;16.88;9.07;;;;;;;1.47;70.74;97954.03;6253920;23;20012;-85
2023/01/23 11:02:35;;;;;;;;;;;;;;;1.51;70.51;97955.53;6256215;23;20016;-84
2023/01/23 11:05:36;;;;;;;15.75;10.10;;;;;;;1.50;70.91;97966.72;6253744;23;19922;-84
2023/01/23 11:08:29;;;;;;;16.40;10.30;;;;;;;1.52;70.34;97966.63;6254673;23;20396;-84
2023/01/23 11:11:23;;;;;;;19.10;11.02;;;;;;;1.52;70.75;97962.31;6253647;23;20016;-84
2023/01/23 11:14:08;;;;;;;16.85;9.68;;;;;;;1.53;70.49;97963.13;6253555;23;20039;-84
2023/01/23 11:16:41;;;;;;;14.98;9.50;;;;;;;1.52;70.67;97951.19;6253395;23;20379;-84
2023/01/23 11:19:24;;;;;;;15.93;10.23;;;;;;;1.53;71.21;97956.25;6253064;23;20343;-84
2023/01/23 11:21:59;;;;;;;16.17;9.73;;;;;;;1.55;71.24;97946.69;6254271;23;20440;-84
2023/01/23 11:24:38;;;;;;;15.75;9.60;;;;;;;1.58;70.98;97943.94;6254677;23;20072;-83
2023/01/23 11:27:19;;;;;;;14.77;9.45;;;;;;;1.57;70.44;97944.84;6253591;23;20020;-86
2023/01/23 11:30:14;;;;;;;15.13;9.57;;;;;;;1.59;71.07;97943.00;6253952;23;20095;-84
2023/01/23 11:32:51;;;;;;;16.20;9.75;;;;;;;1.59;70.73;97943.00;6254475;23;20203;-83
2023/01/23 11:35:24;;;;;;;17.00;10.40;;;;;;;1.60;70.88;97936.97;6255090;23;20047;-84
2023/01/23 11:37:55;;;;;;;15.43;9.45;;;;;;;1.59;70.83;97932.72;6253577;23;20471;-84
2023/01/23 11:40:35;;;;;;;14.77;9.63;;;;;;;1.60;70.79;97928.41;6255593;23;20106;-84
2023/01/23 11:43:13;;;;;;;;;;;;;;;1.64;71.02;97911.88;6260811;23;20016;-84
2023/01/23 11:46:15;;;;;;;14.30;9.02;;;;;;;1.62;70.70;97911.16;6254907;23;19931;-85
2023/01/23 11:49:00;;;;;;;13.02;8.63;;;;;;;1.61;70.61;97912.06;6253117;23;20026;-83
2023/01/23 11:51:39;;;;;;;15.20;10.07;;;;;;;1.60;71.04;97913.00;6256957;23;20077;-85
2023/01/23 11:54:26;;;;;;;17.95;10.38;;;;;;;1.62;71.05;97906.81;6256730;23;20030;-84
2023/01/23 11:57:03;;;;;;;15.60;9.85;;;;;;;1.68;71.04;97909.94;6255821;23;20403;-83
2023/01/23 12:00:01;;;;;;;16.00;9.50;;;;;;;1.76;71.62;97907.72;6254834;23;20040;-86
2023/01/23 12:03:07;;;;;;;15.77;9.52;;;;;;;1.83;70.85;97909.00;6255494;23;20016;-84
2023/01/23 12:06:13;;;;;;;16.77;10.85;;;;;;;1.86;70.85;97906.25;6255678;23;20020;-84